Airfield :
LOGIN :

Register | Disclaimer

   EN    FR    IT 

 










Legend :    VFR   Marginal VFR   IFR   Intensive IFR   Very Intensive IFR
Visi :
Ceiling :
>= 8 km
>= 3000ft
5 to 8 km
1000 to 3000 ft
1500m to 5 km
500 to 1000 ft
800 to 1500m
200 to 500 ft
< 800m
< 200 ft
Symbols :   Thunderstorms  Fog  Heavy snow  Heavy precipitations  Wind > 20 kt
SIGMETs :     Misc.  Thunderstorms  Icing  Turbulence  Mountain Waves  Volcanic Ashes






- Airport Elevation : 39 ft
- IATA code : ANR


EBAW - Anvers / Antwerpen Deurne

CURRENT METAR :
  • 280750Z 08003KT 050V130 5000 -RADZ OVC003 06/05 Q1000 TEMPO 3000 RADZ

EXPIRED METARs :
  • 280720Z 13004KT 100V160 4000 -RADZ OVC003 06/05 Q1000 TEMPO 3000 RADZ
  • 280650Z 13007KT 3000 -RADZ OVC003 06/05 Q1001 TEMPO 6000 -RADZ
  • 280620Z 13007KT 4500 -RADZ OVC002 06/05 Q1001 TEMPO 3000 RADZ
  • 280550Z 13007KT 4500 -RADZ OVC002 06/05 Q1002 TEMPO 3000 RADZ
  • 280520Z AUTO 13005KT 3300 -RA OVC002/// 06/05 Q1003

TAF TAF EBAW
Valid from the 28 at 06:00 until the 28 at 15:00 UTC


280510Z 2806/2815 18006KT 6000 -RA SCT003 BKN006
TEMPO 2806/2812 3500 RADZ BKN004
BECMG 2810/2812 26015G27KT 9999 NSW SCT006 BKN012



MET'MAP, your aeronautical weather chart ! - Copyright ORBIFLY December 2007 - Disclaimer

ORBIFLY MET'MAP TEAM :

Programming & Development : Alexandra Zaïnal
Concept & original design : Baudouin d'Aumeries
Assistance for programming : Marc-Olivier Méhu
Technical & hardware support : Manuel Goepfert

Contact : metmap@orbifly.com




SOURCES & CREDITS :

   NOAA